• Join FlightAware (Why Join?)
  • Login
  • US Flag 
04:55PM EST


 

Airport Tracker/Info


-or-


 

Live Flight TrackerFlight Track Log ✈ N352VA ✈ 22-Apr-2013 ✈ KHAO - KIMS

Flight Track Log - Related Links

Times and Time Zones

All times are in EDT time to prevent confusion due to time zone crossing. See the N352VA flight status page for this flight to view local times or setup timezone preferences in your user account.

Time Position Orientation Groundspeed Altitude Reporting Facility
EDT Latitude Longitude Course Direction KTS MPH feet Rate Location/Type
11:14AM 39.3500 -84.5667 218° Southwest 82 94 2,300  Level Cincinnati TRACON
11:15AM 39.3333 -84.5833 218° Southwest 83 96 3,100 600 Climbing Cincinnati TRACON
11:16AM 39.3333 -84.6167 270° West 89 102 3,600 420 Climbing Cincinnati TRACON
11:16AM 39.3094 -84.6394 216° Southwest 138 159 3,900  Climbing Indianapolis Center
11:18AM 39.2872 -84.6633 220° Southwest 122 140 3,700 -240 Descending Indianapolis Center
11:19AM 39.2667 -84.7000 234° Southwest 107 123 3,500  Descending Cincinnati TRACON
11:20AM 39.2500 -84.7333 237° Southwest 102 117 3,700 120 Climbing Cincinnati TRACON
11:21AM 39.2333 -84.7667 237° Southwest 106 122 3,800  Climbing Cincinnati TRACON
11:22AM 39.2167 -84.8000 237° Southwest 110 127 3,800  Level Cincinnati TRACON
11:23AM 39.1833 -84.8167 201° Southwest 108 124 3,800  Level Cincinnati TRACON
11:24AM 39.1667 -84.8333 218° Southwest 114 131 3,800  Level Cincinnati TRACON
11:25AM 39.1500 -84.8667 237° Southwest 108 124 3,800 -60 Level Cincinnati TRACON
11:26AM 39.1333 -84.9000 237° Southwest 110 127 3,700 -180 Descending Cincinnati TRACON
11:27AM 39.1167 -84.9333 237° Southwest 118 136 3,500 -180 Descending Cincinnati TRACON
11:28AM 39.1000 -84.9667 237° Southwest 110 127 3,400  Descending Cincinnati TRACON
11:29AM 39.0833 -84.9833 218° Southwest 102 117 3,600 60 Climbing Cincinnati TRACON
11:30AM 39.0667 -85.0167 237° Southwest 101 116 3,600  Level Cincinnati TRACON
11:31AM 39.0500 -85.0500 237° Southwest 111 128 3,600  Level Cincinnati TRACON
11:32AM 39.0333 -85.0833 237° Southwest 113 130 3,600  Level Cincinnati TRACON
11:33AM 39.0167 -85.1167 237° Southwest 108 124 3,600  Level Cincinnati TRACON
11:34AM 39.0000 -85.1500 237° Southwest 147 169 3,600  Level Cincinnati TRACON
11:35AM 38.9667 -85.1833 218° Southwest 107 123 3,600  Level Cincinnati TRACON
11:36AM 38.9500 -85.2000 218° Southwest 106 122 3,700  Climbing Cincinnati TRACON
11:37AM 38.9333 -85.2333 237° Southwest 109 125 3,700  Level Cincinnati TRACON
11:38AM 38.9000 -85.2500 201° Southwest 110 127 3,700 -60 Level Cincinnati TRACON
11:39AM 38.8833 -85.2833 237° Southwest 111 128 3,600  Descending Cincinnati TRACON
11:40AM 38.8500 -85.3000 201° Southwest 111 128 3,700  Climbing Cincinnati TRACON
11:41AM 38.8333 -85.3333 237° Southwest 110 127 3,600 -120 Descending Cincinnati TRACON
11:42AM 38.8167 -85.3667 237° Southwest 110 127 3,500 -360 Descending Cincinnati TRACON
11:44AM 38.7833 -85.4167 229° Southwest 105 121 2,600 -420 Descending Cincinnati TRACON
11:45AM 38.7500 -85.4500 218° Southwest 105 121 2,400 -180 Descending Cincinnati TRACON
11:46AM 38.7333 -85.4333 142° Southeast 106 122 2,300 -180 Descending Cincinnati TRACON
11:47AM 38.7333 -85.4000 90° East 115 132 2,100 -240 Descending Cincinnati TRACON